createdAt,value
2019-01-19T00:00:41.024Z,99.99
2019-01-19T00:01:50.996Z,99.99
2019-01-19T00:03:00.699Z,99.99
2019-01-19T00:04:10.641Z,99.99
2019-01-19T00:05:20.367Z,99.99
2019-01-19T00:06:30.319Z,99.99
2019-01-19T00:07:40.012Z,99.99
2019-01-19T00:08:49.699Z,99.99
2019-01-19T00:09:59.148Z,99.99
2019-01-19T00:11:09.084Z,99.99
2019-01-19T00:12:18.770Z,99.99
2019-01-19T00:13:28.789Z,99.99
2019-01-19T00:14:38.733Z,99.99
2019-01-19T00:15:48.664Z,99.99
2019-01-19T00:16:58.604Z,99.99
2019-01-19T00:18:08.550Z,99.99
2019-01-19T00:19:18.244Z,99.99
2019-01-19T00:20:27.692Z,99.99
2019-01-19T00:21:37.632Z,99.99
2019-01-19T00:22:47.314Z,99.99
2019-01-19T00:23:57.257Z,99.99
2019-01-19T00:25:07.219Z,99.99
2019-01-19T00:26:16.914Z,99.99
2019-01-19T00:27:26.618Z,99.99
2019-01-19T00:28:36.290Z,99.99
2019-01-19T00:29:45.982Z,99.99
2019-01-19T00:30:55.928Z,99.99
2019-01-19T00:32:05.604Z,99.99
2019-01-19T00:33:15.285Z,99.99
2019-01-19T00:34:25.227Z,99.99
2019-01-19T00:35:41.374Z,99.99
2019-01-19T00:36:51.306Z,99.99
2019-01-19T00:38:01.253Z,99.99
2019-01-19T00:39:10.934Z,99.99
2019-01-19T00:40:20.633Z,99.99
2019-01-19T00:41:30.329Z,99.99
2019-01-19T00:42:40.273Z,99.99
2019-01-19T00:43:50.260Z,99.99
2019-01-19T00:45:00.210Z,99.99
2019-01-19T00:46:10.182Z,99.99
2019-01-19T00:47:20.139Z,99.99
2019-01-19T00:48:30.088Z,99.99
2019-01-19T00:49:39.782Z,99.99
2019-01-19T00:50:49.734Z,99.99
2019-01-19T00:51:59.415Z,99.99
2019-01-19T00:53:09.581Z,99.99
2019-01-19T00:54:19.005Z,99.99
2019-01-19T00:55:28.935Z,99.99
2019-01-19T00:56:38.864Z,99.99
2019-01-19T00:57:48.801Z,99.99
2019-01-19T00:58:58.478Z,99.99
2019-01-19T01:00:08.248Z,99.99
2019-01-19T01:01:18.181Z,99.99
2019-01-19T01:02:27.638Z,99.99
2019-01-19T01:03:37.572Z,99.99
2019-01-19T01:04:47.260Z,99.99
2019-01-19T01:05:57.195Z,99.99
2019-01-19T01:07:07.124Z,99.99
2019-01-19T01:08:17.060Z,99.99
2019-01-19T01:09:26.980Z,99.99
2019-01-19T01:10:36.660Z,99.99
2019-01-19T01:11:46.603Z,99.99
2019-01-19T01:12:56.562Z,99.99
2019-01-19T01:14:06.518Z,99.99
2019-01-19T01:15:16.457Z,99.99
2019-01-19T01:16:26.148Z,99.99
2019-01-19T01:17:35.834Z,99.99
2019-01-19T01:18:45.784Z,99.99
2019-01-19T01:19:55.214Z,99.99
2019-01-19T01:21:04.648Z,99.99
2019-01-19T01:22:14.581Z,99.99
2019-01-19T01:23:24.525Z,99.99
2019-01-19T01:24:34.453Z,99.99
2019-01-19T01:25:44.394Z,99.99
2019-01-19T01:26:54.065Z,99.99
2019-01-19T01:28:03.757Z,99.99
2019-01-19T01:29:13.702Z,99.99
2019-01-19T01:30:23.382Z,99.99
2019-01-19T01:31:33.315Z,99.99
2019-01-19T01:32:42.735Z,99.99
2019-01-19T01:33:52.671Z,99.99
2019-01-19T01:35:02.446Z,99.99
2019-01-19T01:36:12.136Z,99.99
2019-01-19T01:37:21.820Z,99.99
2019-01-19T01:38:31.776Z,99.99
2019-01-19T01:39:41.459Z,99.99
2019-01-19T01:40:50.914Z,99.99
2019-01-19T01:42:00.604Z,99.99
2019-01-19T01:43:10.534Z,99.99
2019-01-19T01:44:20.220Z,99.99
2019-01-19T01:45:30.185Z,99.99
2019-01-19T01:46:40.116Z,99.99
2019-01-19T01:47:49.808Z,99.99
2019-01-19T01:48:59.264Z,99.99
2019-01-19T01:50:08.710Z,99.99
2019-01-19T01:51:18.653Z,99.99
2019-01-19T01:52:28.659Z,99.99
2019-01-19T01:53:38.600Z,99.99
2019-01-19T01:54:48.533Z,99.99
2019-01-19T01:55:58.491Z,99.99
2019-01-19T01:57:08.438Z,99.99
2019-01-19T01:58:18.123Z,99.99
2019-01-19T01:59:27.316Z,99.99
2019-01-19T02:00:36.990Z,99.99
2019-01-19T02:01:46.930Z,99.99
2019-01-19T02:02:56.924Z,99.99
2019-01-19T02:04:06.861Z,99.99
2019-01-19T02:05:16.552Z,99.99
2019-01-19T02:06:26.494Z,99.99
2019-01-19T02:07:36.175Z,99.99
2019-01-19T02:08:46.108Z,99.99
2019-01-19T02:09:56.064Z,99.99
2019-01-19T02:11:06.007Z,99.99
2019-01-19T02:12:15.940Z,99.99
2019-01-19T02:13:25.397Z,99.99
2019-01-19T02:14:35.342Z,99.99
2019-01-19T02:15:45.284Z,99.99
2019-01-19T02:16:54.980Z,99.99
2019-01-19T02:18:04.921Z,99.8
2019-01-19T02:19:14.869Z,99.99
2019-01-19T02:20:24.798Z,99.52
2019-01-19T02:21:34.480Z,99.24
2019-01-19T02:22:44.126Z,99.43
2019-01-19T02:23:53.818Z,99.8
2019-01-19T02:25:03.536Z,99.8
2019-01-19T02:26:13.480Z,99.8
2019-01-19T02:27:23.418Z,99.9
2019-01-19T02:28:33.350Z,99.62
2019-01-19T02:29:43.274Z,99.62
2019-01-19T02:30:52.726Z,99.8
2019-01-19T02:32:02.416Z,99.71
2019-01-19T02:33:12.149Z,99.99
2019-01-19T02:34:22.083Z,99.8
2019-01-19T02:35:32.027Z,99.99
2019-01-19T02:36:41.962Z,99.99
2019-01-19T02:37:51.396Z,99.99
2019-01-19T02:39:01.344Z,99.8
2019-01-19T02:40:11.273Z,99.71
2019-01-19T02:41:21.215Z,99.62
2019-01-19T02:42:30.655Z,99.9
2019-01-19T02:43:40.595Z,99.99
2019-01-19T02:44:50.560Z,99.99
2019-01-19T02:46:00.506Z,99.71
2019-01-19T02:47:10.442Z,99.62
2019-01-19T02:48:20.401Z,99.8
2019-01-19T02:49:30.330Z,99.62
2019-01-19T02:50:40.069Z,99.24
2019-01-19T02:51:50.057Z,99.8
2019-01-19T02:53:00.015Z,99.43
2019-01-19T02:54:09.710Z,99.62
2019-01-19T02:55:19.650Z,99.71
2019-01-19T02:56:29.606Z,99.8
2019-01-19T02:57:39.047Z,99.8
2019-01-19T02:58:48.983Z,99.99
2019-01-19T02:59:58.663Z,99.8
2019-01-19T03:01:08.605Z,99.8
2019-01-19T03:02:17.801Z,99.62
2019-01-19T03:03:27.746Z,99.99
2019-01-19T03:04:37.676Z,99.99
2019-01-19T03:05:47.611Z,99.99
2019-01-19T03:07:03.817Z,99.99
2019-01-19T03:08:13.768Z,99.99
2019-01-19T03:09:23.715Z,99.99
2019-01-19T03:10:33.406Z,99.99
2019-01-19T03:11:43.088Z,99.99
2019-01-19T03:12:52.780Z,99.99
2019-01-19T03:14:02.214Z,99.99
2019-01-19T03:15:11.902Z,99.99
2019-01-19T03:16:21.587Z,99.99
2019-01-19T03:17:31.262Z,99.99
2019-01-19T03:18:41.216Z,99.99
2019-01-19T03:19:50.398Z,99.99
2019-01-19T03:21:00.331Z,99.99
2019-01-19T03:22:09.793Z,99.99
2019-01-19T03:23:19.727Z,99.99
2019-01-19T03:24:29.656Z,99.99
2019-01-19T03:25:39.586Z,99.99
2019-01-19T03:26:49.538Z,99.99
2019-01-19T03:27:59.466Z,99.99
2019-01-19T03:29:09.397Z,99.99
2019-01-19T03:30:19.375Z,99.99
2019-01-19T03:31:29.352Z,99.99
2019-01-19T03:32:39.322Z,99.99
2019-01-19T03:33:49.294Z,99.99
2019-01-19T03:34:59.052Z,99.99
2019-01-19T03:36:08.759Z,99.99
2019-01-19T03:37:18.447Z,99.99
2019-01-19T03:38:27.892Z,99.99
2019-01-19T03:39:37.874Z,99.99
2019-01-19T03:40:47.572Z,99.99
2019-01-19T03:41:57.504Z,99.99
2019-01-19T03:43:07.240Z,99.99
2019-01-19T03:44:17.195Z,99.99
2019-01-19T03:45:26.889Z,99.99
2019-01-19T03:46:36.814Z,99.99
2019-01-19T03:47:46.755Z,99.99
2019-01-19T03:48:56.708Z,99.99
2019-01-19T03:50:05.660Z,99.99
2019-01-19T03:51:15.618Z,99.99
2019-01-19T03:52:25.543Z,99.99
2019-01-19T03:53:35.477Z,99.99
2019-01-19T03:54:45.403Z,99.99
2019-01-19T03:55:54.849Z,99.99
2019-01-19T03:57:04.788Z,99.99
2019-01-19T03:58:14.727Z,99.99
2019-01-19T03:59:24.666Z,99.99
2019-01-19T04:00:34.119Z,99.99
2019-01-19T04:01:43.814Z,99.99
2019-01-19T04:02:53.751Z,99.99
2019-01-19T04:04:03.687Z,99.99
2019-01-19T04:05:13.163Z,99.99
2019-01-19T04:06:23.106Z,99.99
2019-01-19T04:07:33.068Z,99.99
2019-01-19T04:08:42.749Z,99.99
2019-01-19T04:09:52.445Z,99.99
2019-01-19T04:11:02.385Z,99.99
2019-01-19T04:12:12.077Z,99.99
2019-01-19T04:13:22.118Z,99.99
2019-01-19T04:14:32.047Z,99.99
2019-01-19T04:15:41.988Z,99.99
2019-01-19T04:16:51.937Z,99.99
2019-01-19T04:18:01.893Z,99.99
2019-01-19T04:19:11.086Z,99.99
2019-01-19T04:20:21.052Z,99.99
2019-01-19T04:21:30.744Z,99.99
2019-01-19T04:22:40.442Z,99.99
2019-01-19T04:23:50.408Z,99.99
2019-01-19T04:25:00.334Z,99.99
2019-01-19T04:26:10.030Z,99.99
2019-01-19T04:27:19.957Z,99.99
2019-01-19T04:28:29.900Z,99.99
2019-01-19T04:29:39.347Z,99.99
2019-01-19T04:30:49.674Z,99.99
2019-01-19T04:31:58.982Z,99.99
2019-01-19T04:33:08.432Z,99.99
2019-01-19T04:34:18.122Z,99.99
2019-01-19T04:35:27.827Z,99.99
2019-01-19T04:36:37.573Z,99.99
2019-01-19T04:37:47.504Z,99.99
2019-01-19T04:38:57.436Z,99.99
2019-01-19T04:40:07.133Z,99.99
2019-01-19T04:41:17.098Z,99.99
2019-01-19T04:42:27.049Z,99.99
2019-01-19T04:43:36.989Z,99.99
2019-01-19T04:44:46.678Z,99.99
2019-01-19T04:45:56.616Z,99.99
2019-01-19T04:47:06.594Z,99.99
2019-01-19T04:48:16.529Z,99.99
2019-01-19T04:49:26.467Z,99.99
2019-01-19T04:50:36.410Z,99.99
2019-01-19T04:51:46.100Z,99.99
2019-01-19T04:52:55.794Z,99.99
2019-01-19T04:54:05.725Z,99.99
2019-01-19T04:55:15.712Z,99.99
2019-01-19T04:56:25.263Z,99.99
2019-01-19T04:57:34.948Z,99.99
2019-01-19T04:58:44.887Z,99.99
2019-01-19T04:59:54.335Z,99.99
2019-01-19T05:01:04.284Z,99.99
2019-01-19T05:02:14.230Z,99.99
2019-01-19T05:03:24.183Z,99.99
2019-01-19T05:04:34.145Z,99.99
2019-01-19T05:05:44.087Z,99.99
2019-01-19T05:06:54.031Z,99.99
2019-01-19T05:08:03.475Z,99.99
2019-01-19T05:09:13.159Z,99.99
2019-01-19T05:10:22.593Z,99.99
2019-01-19T05:11:32.294Z,99.99
2019-01-19T05:12:42.001Z,99.99
2019-01-19T05:13:51.945Z,99.99
2019-01-19T05:15:01.624Z,99.99
2019-01-19T05:16:11.572Z,99.99
2019-01-19T05:17:21.278Z,99.99
2019-01-19T05:18:30.980Z,99.99
2019-01-19T05:19:40.925Z,99.99
2019-01-19T05:20:50.885Z,99.99
2019-01-19T05:22:00.845Z,99.99
2019-01-19T05:23:10.886Z,99.99
2019-01-19T05:24:20.333Z,99.99
2019-01-19T05:25:30.281Z,99.99
2019-01-19T05:26:40.204Z,99.99
2019-01-19T05:27:50.143Z,99.99
2019-01-19T05:29:00.083Z,99.99
2019-01-19T05:30:10.017Z,99.99
2019-01-19T05:31:19.950Z,99.99
2019-01-19T05:32:29.640Z,99.99
2019-01-19T05:33:39.581Z,99.99
2019-01-19T05:34:49.523Z,99.99
2019-01-19T05:35:59.464Z,99.99
2019-01-19T05:37:08.904Z,99.99
2019-01-19T05:38:18.840Z,99.99
2019-01-19T05:39:28.033Z,99.99
2019-01-19T05:40:37.469Z,99.99
2019-01-19T05:41:47.407Z,99.99
2019-01-19T05:42:57.347Z,99.99
2019-01-19T05:44:07.306Z,99.99
2019-01-19T05:45:17.245Z,99.99
2019-01-19T05:46:27.186Z,99.99
2019-01-19T05:47:36.867Z,99.99
2019-01-19T05:48:46.848Z,99.99
2019-01-19T05:49:56.795Z,99.99
2019-01-19T05:51:06.735Z,99.99
2019-01-19T05:52:16.688Z,99.99
2019-01-19T05:53:26.401Z,99.99
2019-01-19T05:54:36.089Z,99.99
2019-01-19T05:55:45.782Z,99.99
2019-01-19T05:56:55.486Z,99.99
2019-01-19T05:58:04.703Z,99.99
2019-01-19T05:59:14.393Z,99.99
2019-01-19T06:00:24.091Z,99.99
2019-01-19T06:01:33.807Z,99.99
2019-01-19T06:02:43.753Z,99.99
2019-01-19T06:03:53.462Z,99.99
2019-01-19T06:05:02.912Z,99.99
2019-01-19T06:06:12.874Z,99.99
2019-01-19T06:07:22.805Z,99.99
2019-01-19T06:08:32.761Z,99.99
2019-01-19T06:09:42.474Z,99.99
2019-01-19T06:10:52.427Z,99.99
2019-01-19T06:12:02.120Z,99.99
2019-01-19T06:13:12.057Z,99.99
2019-01-19T06:14:21.993Z,99.99
2019-01-19T06:15:31.685Z,99.99
2019-01-19T06:16:41.667Z,99.99
2019-01-19T06:17:51.617Z,99.99
2019-01-19T06:19:01.326Z,99.99
2019-01-19T06:20:11.016Z,99.99
2019-01-19T06:21:20.708Z,99.99
2019-01-19T06:22:30.889Z,99.99
2019-01-19T06:23:40.825Z,99.99
2019-01-19T06:24:50.755Z,99.99
2019-01-19T06:26:00.561Z,99.99
2019-01-19T06:27:10.511Z,99.99
2019-01-19T06:28:19.951Z,99.99
2019-01-19T06:29:29.651Z,99.99
2019-01-19T06:30:39.091Z,99.99
2019-01-19T06:31:48.774Z,99.99
2019-01-19T06:32:58.766Z,99.99
2019-01-19T06:34:08.467Z,99.99
2019-01-19T06:35:17.917Z,99.99
2019-01-19T06:36:27.879Z,99.99
2019-01-19T06:37:37.839Z,99.99
2019-01-19T06:38:47.539Z,99.99
2019-01-19T06:39:57.517Z,99.99
2019-01-19T06:41:07.463Z,99.99
2019-01-19T06:42:17.404Z,99.99
2019-01-19T06:43:27.101Z,99.99
2019-01-19T06:44:37.027Z,99.99
2019-01-19T06:45:46.224Z,99.99
2019-01-19T06:46:56.159Z,99.99
2019-01-19T06:48:05.853Z,99.99
2019-01-19T06:49:15.541Z,99.99
2019-01-19T06:50:25.502Z,99.99
2019-01-19T06:51:34.949Z,99.99
2019-01-19T06:52:44.888Z,99.99
2019-01-19T06:54:01.296Z,99.99
2019-01-19T06:55:11.215Z,99.99
2019-01-19T06:56:20.656Z,99.99
2019-01-19T06:57:30.101Z,99.99
2019-01-19T06:58:40.060Z,99.99
2019-01-19T06:59:50.023Z,99.99
2019-01-19T07:00:59.957Z,99.99
2019-01-19T07:02:09.910Z,99.99
2019-01-19T07:03:19.846Z,99.99
2019-01-19T07:04:29.801Z,99.99
2019-01-19T07:05:39.488Z,99.99
2019-01-19T07:06:49.427Z,99.99
2019-01-19T07:08:05.540Z,99.99
2019-01-19T07:09:15.229Z,99.99
2019-01-19T07:10:24.918Z,99.99
2019-01-19T07:11:34.866Z,99.99
2019-01-19T07:12:44.544Z,99.99
2019-01-19T07:13:54.238Z,99.99
2019-01-19T07:15:04.365Z,99.99
2019-01-19T07:16:13.796Z,99.99
2019-01-19T07:17:23.482Z,99.99
2019-01-19T07:18:33.170Z,99.99
2019-01-19T07:19:42.869Z,99.99
2019-01-19T07:20:52.848Z,99.99
2019-01-19T07:22:02.777Z,99.99
2019-01-19T07:23:12.722Z,99.99
2019-01-19T07:24:22.659Z,99.99
2019-01-19T07:25:32.343Z,99.99
2019-01-19T07:26:42.036Z,99.99
2019-01-19T07:27:51.968Z,99.99
2019-01-19T07:29:01.656Z,99.99
2019-01-19T07:30:11.589Z,99.99
2019-01-19T07:31:21.533Z,99.99
2019-01-19T07:32:31.465Z,99.99
2019-01-19T07:33:41.403Z,99.99
2019-01-19T07:34:51.117Z,99.99
2019-01-19T07:36:01.075Z,99.99
2019-01-19T07:37:12.400Z,99.99
2019-01-19T07:38:22.360Z,99.99
2019-01-19T07:39:32.300Z,99.99
2019-01-19T07:40:41.507Z,99.99
2019-01-19T07:41:51.194Z,99.99
2019-01-19T07:43:00.884Z,99.99
2019-01-19T07:44:10.821Z,99.99
2019-01-19T07:45:20.502Z,99.99
2019-01-19T07:46:30.459Z,99.99
2019-01-19T07:47:40.415Z,99.99
2019-01-19T07:48:50.365Z,99.99
2019-01-19T07:50:00.317Z,99.99
2019-01-19T07:51:11.427Z,99.99
2019-01-19T07:52:21.512Z,99.99
2019-01-19T07:53:31.458Z,99.99
2019-01-19T07:54:41.138Z,99.99
2019-01-19T07:55:50.833Z,99.99
2019-01-19T07:57:00.336Z,99.99
2019-01-19T07:58:10.067Z,99.99
2019-01-19T07:59:19.842Z,99.99
2019-01-19T08:00:29.042Z,99.99
2019-01-19T08:01:38.736Z,99.99
2019-01-19T08:02:48.188Z,99.99
2019-01-19T08:03:57.879Z,99.99
2019-01-19T08:05:07.834Z,99.99
2019-01-19T08:06:18.788Z,99.99
2019-01-19T08:07:28.486Z,99.99
2019-01-19T08:08:38.422Z,99.99
2019-01-19T08:09:48.374Z,99.99
2019-01-19T08:10:58.330Z,99.99
2019-01-19T08:12:08.281Z,99.99
2019-01-19T08:13:18.237Z,99.99
2019-01-19T08:14:28.165Z,99.99
2019-01-19T08:15:38.107Z,99.99
2019-01-19T08:16:47.813Z,99.99
2019-01-19T08:17:57.510Z,99.99
2019-01-19T08:19:07.212Z,99.99
2019-01-19T08:20:16.895Z,99.99
2019-01-19T08:21:26.839Z,99.99
2019-01-19T08:22:36.805Z,99.99
2019-01-19T08:23:46.764Z,99.99
2019-01-19T08:24:56.218Z,99.99
2019-01-19T08:26:05.995Z,99.99
2019-01-19T08:27:15.950Z,99.99
2019-01-19T08:28:25.914Z,99.99
2019-01-19T08:29:35.864Z,99.99
2019-01-19T08:30:45.550Z,99.99
2019-01-19T08:31:54.764Z,99.99
2019-01-19T08:33:04.728Z,99.99
2019-01-19T08:34:14.445Z,99.99
2019-01-19T08:35:24.140Z,99.99
2019-01-19T08:36:34.082Z,99.99
2019-01-19T08:37:43.540Z,99.99
2019-01-19T08:38:53.509Z,99.99
2019-01-19T08:40:03.508Z,99.99
2019-01-19T08:41:13.194Z,99.99
2019-01-19T08:42:23.144Z,99.99
2019-01-19T08:43:33.084Z,99.99
2019-01-19T08:44:43.023Z,99.99
2019-01-19T08:45:52.969Z,99.99
2019-01-19T08:47:02.652Z,99.99
2019-01-19T08:48:12.092Z,99.99
2019-01-19T08:49:21.804Z,99.99
2019-01-19T08:50:31.745Z,99.99
2019-01-19T08:51:41.714Z,99.99
2019-01-19T08:52:51.710Z,99.99
2019-01-19T08:54:01.690Z,99.99
2019-01-19T08:55:11.394Z,99.99
2019-01-19T08:56:21.088Z,99.99
2019-01-19T08:57:31.037Z,99.99
2019-01-19T08:58:40.492Z,99.99
2019-01-19T08:59:50.435Z,99.99
2019-01-19T09:01:00.400Z,99.99
2019-01-19T09:02:11.914Z,99.99
2019-01-19T09:03:21.851Z,99.99
2019-01-19T09:04:31.550Z,99.99
2019-01-19T09:05:41.512Z,99.99
2019-01-19T09:06:51.194Z,99.99
2019-01-19T09:08:01.131Z,99.95
2019-01-19T09:09:10.326Z,99.85
2019-01-19T09:10:20.023Z,99.99
2019-01-19T09:11:29.964Z,99.99
2019-01-19T09:12:39.664Z,99.99
2019-01-19T09:13:49.610Z,99.99
2019-01-19T09:14:59.573Z,99.99
2019-01-19T09:16:09.265Z,99.99
2019-01-19T09:17:18.974Z,99.99
2019-01-19T09:18:28.932Z,99.76
2019-01-19T09:19:39.688Z,99.9
2019-01-19T09:20:49.644Z,99.71
2019-01-19T09:21:59.334Z,99.9
2019-01-19T09:23:09.284Z,99.15
2019-01-19T09:24:18.966Z,99.33
2019-01-19T09:25:28.657Z,99.05
2019-01-19T09:26:38.612Z,99.85
2019-01-19T09:27:48.545Z,99.99
2019-01-19T09:28:58.512Z,99.95
2019-01-19T09:30:08.211Z,98.58
2019-01-19T09:31:17.926Z,98.2
2019-01-19T09:32:27.868Z,98.2
2019-01-19T09:33:37.810Z,98.58
2019-01-19T09:34:47.512Z,99.33
2019-01-19T09:35:57.209Z,99.81
2019-01-19T09:37:06.677Z,99.15
2019-01-19T09:38:16.631Z,98.86
2019-01-19T09:39:26.640Z,98.01
2019-01-19T09:40:36.588Z,97.16
2019-01-19T09:41:46.543Z,95.83
2019-01-19T09:42:56.534Z,94.84
2019-01-19T09:44:06.230Z,94.46
2019-01-19T09:45:16.175Z,94.18
2019-01-19T09:46:25.875Z,93.61
2019-01-19T09:47:35.814Z,93.61
2019-01-19T09:48:46.869Z,91.52
2019-01-19T09:49:56.645Z,91.33
2019-01-19T09:51:06.618Z,91.43
2019-01-19T09:52:23.246Z,91.76
2019-01-19T09:53:33.210Z,90.05
2019-01-19T09:54:43.152Z,89.29
2019-01-19T09:55:52.858Z,89.86
2019-01-19T09:57:02.792Z,90.24
2019-01-19T09:58:12.754Z,89.11
2019-01-19T09:59:22.733Z,89.01
2019-01-19T10:00:45.465Z,89.29
2019-01-19T10:01:55.604Z,89.77
2019-01-19T10:03:05.600Z,90.24
2019-01-19T10:04:16.831Z,89.01
2019-01-19T10:05:26.812Z,88.25
2019-01-19T10:06:36.766Z,88.54
2019-01-19T10:07:50.985Z,86.68
2019-01-19T10:09:00.697Z,86.78
2019-01-19T10:10:10.970Z,85.74
2019-01-19T10:11:20.699Z,85.64
2019-01-19T10:12:30.640Z,85.74
2019-01-19T10:13:40.603Z,86.3
2019-01-19T10:14:50.550Z,86.11
2019-01-19T10:16:00.502Z,85.36
2019-01-19T10:17:10.460Z,85.17
2019-01-19T10:18:20.406Z,85.55
2019-01-19T10:19:30.106Z,86.68
2019-01-19T10:20:40.052Z,85.93
2019-01-19T10:21:49.996Z,85.36
2019-01-19T10:22:59.690Z,84.31
2019-01-19T10:24:09.635Z,83.31
2019-01-19T10:25:19.583Z,82.84
2019-01-19T10:26:29.528Z,83.78
2019-01-19T10:27:39.696Z,82.93
2019-01-19T10:28:49.398Z,82.55
2019-01-19T10:29:59.109Z,83.59
2019-01-19T10:31:09.060Z,82.46
2019-01-19T10:32:19.004Z,81.13
2019-01-19T10:33:28.948Z,79.94
2019-01-19T10:34:38.912Z,79.84
2019-01-19T10:35:48.349Z,79.08
2019-01-19T10:36:58.073Z,78.7
2019-01-19T10:38:08.029Z,79.65
2019-01-19T10:39:18.023Z,80.37
2019-01-19T10:40:28.011Z,80.27
2019-01-19T10:41:43.374Z,81.04
2019-01-19T10:42:53.089Z,81.6
2019-01-19T10:44:02.544Z,81.23
2019-01-19T10:45:12.259Z,80.18
2019-01-19T10:46:22.201Z,80.27
2019-01-19T10:47:32.147Z,79.9
2019-01-19T10:48:41.836Z,80.84
2019-01-19T10:49:51.537Z,80.65
2019-01-19T10:51:01.489Z,80.65
2019-01-19T10:52:11.188Z,80.27
2019-01-19T10:53:21.135Z,79.9
2019-01-19T10:54:31.095Z,80.08
2019-01-19T10:55:40.783Z,80.27
2019-01-19T10:56:50.472Z,81.51
2019-01-19T10:58:00.159Z,81.6
2019-01-19T10:59:09.884Z,80.46
2019-01-19T11:00:19.596Z,80.46
2019-01-19T11:01:29.331Z,80.46
2019-01-19T11:02:39.282Z,80.84
2019-01-19T11:03:49.237Z,81.23
2019-01-19T11:04:58.955Z,81.51
2019-01-19T11:06:08.910Z,82.04
2019-01-19T11:07:18.623Z,83.08
2019-01-19T11:08:28.581Z,82.89
2019-01-19T11:09:38.551Z,82.79
2019-01-19T11:10:48.489Z,83.17
2019-01-19T11:11:58.451Z,83.46
2019-01-19T11:13:08.391Z,83.36
2019-01-19T11:14:18.118Z,83.17
2019-01-19T11:15:27.803Z,83.46
2019-01-19T11:16:37.750Z,81.79
2019-01-19T11:17:46.963Z,81.6
2019-01-19T11:18:56.907Z,81.32
2019-01-19T11:20:06.872Z,80.37
2019-01-19T11:21:16.824Z,80.65
2019-01-19T11:22:26.597Z,80.46
2019-01-19T11:23:42.212Z,81.23
2019-01-19T11:24:51.907Z,81.13
2019-01-19T11:26:01.605Z,81.98
2019-01-19T11:27:11.569Z,81.7
2019-01-19T11:28:21.275Z,81.41
2019-01-19T11:29:30.973Z,81.13
2019-01-19T11:30:40.908Z,81.04
2019-01-19T11:31:50.838Z,82.04
2019-01-19T11:33:01.217Z,82.89
2019-01-19T11:34:11.206Z,82.7
2019-01-19T11:35:21.142Z,82.08
2019-01-19T11:36:30.599Z,81.98
2019-01-19T11:37:40.570Z,82.46
2019-01-19T11:38:50.529Z,79.65
2019-01-19T11:40:00.244Z,77.75
2019-01-19T11:41:10.212Z,78.03
2019-01-19T11:42:19.989Z,78.51
2019-01-19T11:43:29.959Z,79.04
2019-01-19T11:44:39.967Z,80.18
2019-01-19T11:45:49.895Z,80.94
2019-01-19T11:46:59.605Z,80.75
2019-01-19T11:48:09.308Z,81.13
2019-01-19T11:49:19.006Z,79.99
2019-01-19T11:50:28.939Z,79.52
2019-01-19T11:51:38.888Z,79.8
2019-01-19T11:52:48.340Z,79.08
2019-01-19T11:53:58.302Z,79.55
2019-01-19T11:55:08.276Z,78.7
2019-01-19T11:56:18.002Z,78.61
2019-01-19T11:57:27.721Z,79.33
2019-01-19T11:58:37.674Z,80.08
2019-01-19T11:59:47.371Z,81.23
2019-01-19T12:00:57.330Z,81.32
2019-01-19T12:02:07.274Z,80.84
2019-01-19T12:03:16.980Z,81.23
2019-01-19T12:04:26.692Z,80.18
2019-01-19T12:05:38.241Z,80.46
2019-01-19T12:06:48.201Z,80.75
2019-01-19T12:07:58.187Z,81.32
2019-01-19T12:09:08.140Z,81.6
2019-01-19T12:10:17.839Z,80.94
2019-01-19T12:11:27.799Z,81.88
2019-01-19T12:12:37.795Z,81.41
2019-01-19T12:13:47.732Z,81.98
2019-01-19T12:14:57.689Z,81.7
2019-01-19T12:16:07.839Z,80.56
2019-01-19T12:17:17.537Z,80.13
2019-01-19T12:18:27.236Z,80.03
2019-01-19T12:19:36.960Z,78.13
2019-01-19T12:20:46.915Z,77.84
2019-01-19T12:21:56.853Z,78.99
2019-01-19T12:23:06.797Z,77.56
2019-01-19T12:24:16.525Z,78.13
2019-01-19T12:25:26.242Z,78.23
2019-01-19T12:26:36.197Z,78.13
2019-01-19T12:27:45.891Z,76.46
2019-01-19T12:28:55.820Z,76.18
2019-01-19T12:30:05.804Z,76.37
2019-01-19T12:31:15.540Z,77.47
2019-01-19T12:32:25.505Z,77.47
2019-01-19T12:33:35.467Z,78.89
2019-01-19T12:34:45.422Z,79.61
2019-01-19T12:35:55.365Z,79.99
2019-01-19T12:37:05.068Z,81.88
2019-01-19T12:38:15.013Z,81.75
2019-01-19T12:39:31.728Z,82.98
2019-01-19T12:40:41.677Z,82.13
2019-01-19T12:41:51.617Z,81.88
2019-01-19T12:43:01.552Z,81.6
2019-01-19T12:44:11.498Z,81.32
2019-01-19T12:45:21.240Z,81.04
2019-01-19T12:46:30.946Z,81.98
2019-01-19T12:47:40.640Z,81.56
2019-01-19T12:48:50.091Z,82.42
2019-01-19T12:50:00.062Z,82.98
2019-01-19T12:51:10.056Z,83.55
2019-01-19T12:52:19.509Z,84.03
2019-01-19T12:53:29.455Z,82.7
2019-01-19T12:54:39.151Z,83.08
2019-01-19T12:55:49.099Z,82.79
2019-01-19T12:56:59.094Z,83.84
2019-01-19T12:58:08.792Z,83.27
2019-01-19T12:59:18.749Z,84.12
2019-01-19T13:00:28.703Z,84.74
2019-01-19T13:01:38.672Z,84.84
2019-01-19T13:02:48.389Z,84.65
2019-01-19T13:03:58.100Z,84.69
2019-01-19T13:05:08.051Z,84.12
2019-01-19T13:06:17.995Z,84.22
2019-01-19T13:07:27.956Z,84.22
2019-01-19T13:08:37.936Z,84.98
2019-01-19T13:09:47.908Z,84.36
2019-01-19T13:10:57.871Z,84.69
2019-01-19T13:12:07.827Z,84.31
2019-01-19T13:13:17.533Z,84.31
2019-01-19T13:14:27.245Z,84.78
2019-01-19T13:15:37.178Z,84.88
2019-01-19T13:16:46.890Z,84.31
2019-01-19T13:17:56.608Z,83.94
2019-01-19T13:19:06.590Z,83.94
2019-01-19T13:20:16.558Z,83.94
2019-01-19T13:21:26.488Z,83.55
2019-01-19T13:22:36.429Z,83.84
2019-01-19T13:23:47.781Z,82.79
2019-01-19T13:24:57.754Z,83.36
2019-01-19T13:26:07.314Z,83.46
2019-01-19T13:27:17.287Z,83.17
2019-01-19T13:28:26.982Z,82.98
2019-01-19T13:29:36.934Z,83.08
2019-01-19T13:30:46.901Z,83.36
2019-01-19T13:31:56.872Z,83.55
2019-01-19T13:33:06.826Z,82.79
2019-01-19T13:34:16.776Z,82.89
2019-01-19T13:35:26.489Z,82.7
2019-01-19T13:36:36.240Z,82.79
2019-01-19T13:37:45.923Z,83.17
2019-01-19T13:38:55.894Z,83.55
2019-01-19T13:40:05.842Z,83.27
2019-01-19T13:41:15.857Z,83.36
2019-01-19T13:42:25.602Z,82.7
2019-01-19T13:43:35.310Z,82.79
2019-01-19T13:44:45.263Z,83.27
2019-01-19T13:45:55.238Z,83.46
2019-01-19T13:47:05.437Z,84.41
2019-01-19T13:48:15.372Z,84.78
2019-01-19T13:49:25.320Z,85.13
2019-01-19T13:50:34.798Z,85.5
2019-01-19T13:51:44.757Z,86.26
2019-01-19T13:52:58.287Z,86.83
2019-01-19T13:54:08.378Z,87.77
2019-01-19T13:55:18.193Z,87.97
2019-01-19T13:56:27.710Z,87.59
2019-01-19T13:57:37.572Z,86.64
2019-01-19T13:58:47.628Z,86.93
2019-01-19T13:59:57.780Z,86.83
2019-01-19T14:01:07.752Z,87.97
2019-01-19T14:02:19.308Z,88.35
2019-01-19T14:03:29.399Z,88.59
2019-01-19T14:04:38.853Z,88.59
2019-01-19T14:05:48.538Z,88.87
2019-01-19T14:06:58.241Z,88.68
2019-01-19T14:08:08.199Z,89.06
2019-01-19T14:09:18.146Z,89.91
2019-01-19T14:10:27.826Z,89.06
2019-01-19T14:11:37.777Z,89.82
2019-01-19T14:12:47.734Z,89.63
2019-01-19T14:13:57.452Z,89.53
2019-01-19T14:15:07.415Z,89.53
2019-01-19T14:16:17.356Z,89.72
2019-01-19T14:17:27.305Z,90.2
2019-01-19T14:18:37.261Z,90.77
2019-01-19T14:19:46.957Z,90.1
2019-01-19T14:20:56.892Z,90.2
2019-01-19T14:22:06.584Z,90.48
2019-01-19T14:23:16.037Z,91.05
2019-01-19T14:24:25.990Z,91.05
2019-01-19T14:25:35.963Z,91.52
2019-01-19T14:26:45.926Z,91.05
2019-01-19T14:27:55.887Z,91.43
2019-01-19T14:29:05.838Z,91.05
2019-01-19T14:30:15.797Z,91.71
2019-01-19T14:31:25.560Z,91.43
2019-01-19T14:32:35.501Z,91.14
2019-01-19T14:33:45.196Z,91.24
2019-01-19T14:34:54.902Z,91.9
2019-01-19T14:36:04.849Z,92.09
2019-01-19T14:37:14.546Z,91.67
2019-01-19T14:38:24.227Z,91.86
2019-01-19T14:39:34.183Z,91.95
2019-01-19T14:40:44.129Z,92.61
2019-01-19T14:41:53.828Z,92.52
2019-01-19T14:43:03.510Z,92.61
2019-01-19T14:44:13.460Z,92.9
2019-01-19T14:45:23.406Z,92.99
2019-01-19T14:46:33.111Z,92.99
2019-01-19T14:47:43.080Z,93.08
2019-01-19T14:48:52.514Z,94.23
2019-01-19T14:50:02.332Z,93.65
2019-01-19T14:51:12.304Z,94.42
2019-01-19T14:52:22.300Z,94.51
2019-01-19T14:53:32.244Z,94.7
2019-01-19T14:54:42.189Z,95.64
2019-01-19T14:55:53.220Z,95.45
2019-01-19T14:57:02.687Z,96.21
2019-01-19T14:58:12.381Z,96.78
2019-01-19T14:59:22.077Z,97.35
2019-01-19T15:00:32.046Z,97.35
2019-01-19T15:01:41.528Z,97.2
2019-01-19T15:02:51.248Z,97.77